Beaver Creek, Ohio
Current Conditions -  °F | °C
As of 3:58 PM on Friday 28 Nov 2014 (Local Time) from KFFO Reporting Station
Few Clouds Few Clouds  
Wind Chill: 26°   Ceiling: Unl
Heat Index: 33°   Visibility: 10mi
Dew Point: 16°   Wind: 8mph
Humidity: 50%   Direction: 190°S
Pressure: 30.21"   Gusts: NA
Location:  39.7649°N, 84.0863°W
Report Text: KFFO 282058Z AUTO 19007KT 10SM FEW110 01/M09 A3021 RMK AO2 SLP243 T00061089 57022
Loading
Personal Weather Stations






























Interactive Weather Map New forecast layout! Learn more

10-Day Weather Forecast

Advertisements
Track Severe Weather on mobile